Aviation Digital Data Service (ADDS)

Output produced by METARs form (0558 UTC 16 February 2019)
found at http://www.aviationweather.gov/metar/data/
 
METAR text: RJNG 160142Z 28004KT 240V330 9999 FEW030 09/M01 Q1012 RMK 1CU030 A2989
Conditions at: RJNG (GIFU (JASDF) , JP) observed 0142 UTC 16 February 2019
Temperature: 9.0°C (48°F)
Dewpoint: -1.0°C (30°F) [RH = 49%]
Pressure (altimeter): 29.88 inches Hg (1012.0 mb)
Winds: from the W (280 degrees) at 5 MPH (4 knots; 2.1 m/s)
Visibility: 6 or more miles (10+ km)
Ceiling: at least 12,000 feet AGL
Clouds: few clouds at 3000 feet AGL
Weather: no significant weather observed at this time

METAR text: RJNG 151520Z 02003KT 9999 -SHRA FEW040 BKN050 BKN070 04/M04 Q1017 RMK 1SC040 5SC050 7AC070 A3005
Conditions at: RJNG (GIFU (JASDF) , JP) observed 1520 UTC 15 February 2019
Temperature: 4.0°C (39°F)
Dewpoint: -4.0°C (25°F) [RH = 56%]
Pressure (altimeter): 30.03 inches Hg (1017.0 mb)
Winds: from the NNE (20 degrees) at 3 MPH (3 knots; 1.5 m/s)
Visibility: 6 or more miles (10+ km)
Ceiling: 5000 feet AGL
Clouds: few clouds at 4000 feet AGL
broken clouds at 5000 feet AGL
broken clouds at 7000 feet AGL
Weather: -SHRA  (light rain showers)

METAR text: RJNG 150036Z 30003KT 240V350 9999 FEW045 BKN150 03/M08 Q1026 RMK 1SC045 5AC150 A3032
Conditions at: RJNG (GIFU (JASDF) , JP) observed 0036 UTC 15 February 2019
Temperature: 3.0°C (37°F)
Dewpoint: -8.0°C (18°F) [RH = 44%]
Pressure (altimeter): 30.30 inches Hg (1026.0 mb)
Winds: from the WNW (300 degrees) at 3 MPH (3 knots; 1.5 m/s)
Visibility: 6 or more miles (10+ km)
Ceiling: 15000 feet AGL
Clouds: few clouds at 4500 feet AGL
broken clouds at 15000 feet AGL
Weather: no significant weather observed at this time

METAR text: RJNG 150019Z VRB01KT 9999 FEW030 SCT230 03/M07 Q1026 RMK 1CU030 A3031
Conditions at: RJNG (GIFU (JASDF) , JP) observed 0019 UTC 15 February 2019
Temperature: 3.0°C (37°F)
Dewpoint: -7.0°C (19°F) [RH = 48%]
Pressure (altimeter): 30.30 inches Hg (1026.0 mb)
Winds: variable direction winds at 1 MPH (1 knots; 0.5 m/s)
Visibility: 6 or more miles (10+ km)
Ceiling: at least 12,000 feet AGL
Clouds: few clouds at 3000 feet AGL
scattered clouds at 23000 feet AGL
Weather: no significant weather observed at this time

METAR text: RJNG 141935Z VRB01KT 9999 FEW050 SCT/// M03/M07 Q1026 RMK 2SC050 A3030
Conditions at: RJNG (GIFU (JASDF) , JP) observed 1935 UTC 14 February 2019
Temperature: -3.0°C (27°F)
Dewpoint: -7.0°C (19°F) [RH = 74%]
Pressure (altimeter): 30.30 inches Hg (1026.0 mb)
Winds: variable direction winds at 1 MPH (1 knots; 0.5 m/s)
Visibility: 6 or more miles (10+ km)
Ceiling: at least 12,000 feet AGL
Clouds: few clouds at 5000 feet AGL
Weather: no significant weather observed at this time

METAR text: RJNG 141851Z VRB02KT 9999 BKN050 SCT/// M03/M07 Q1026 RMK 5SC050 A3031
Conditions at: RJNG (GIFU (JASDF) , JP) observed 1851 UTC 14 February 2019
Temperature: -3.0°C (27°F)
Dewpoint: -7.0°C (19°F) [RH = 74%]
Pressure (altimeter): 30.30 inches Hg (1026.0 mb)
Winds: variable direction winds at 2 MPH (2 knots; 1.0 m/s)
Visibility: 6 or more miles (10+ km)
Ceiling: 5000 feet AGL
Clouds: broken clouds at 5000 feet AGL
Weather: no significant weather observed at this time